createdAt,value
2022-10-23T08:45:37.870Z,11.32
2022-10-23T09:05:56.885Z,12.68
2022-10-23T09:25:58.916Z,19.48
2022-10-23T09:46:00.671Z,20.63
2022-10-23T10:06:03.699Z,22.30
2022-10-23T10:26:05.873Z,20.42
2022-10-23T10:46:07.834Z,20.15
2022-10-23T11:06:10.139Z,21.02
2022-10-23T11:26:19.681Z,21.30
2022-10-23T11:46:21.711Z,18.40
2022-10-23T12:06:23.889Z,20.15
2022-10-23T12:26:25.995Z,17.17
2022-10-23T12:46:27.737Z,15.20
2022-10-23T13:06:30.031Z,14.60
2022-10-23T13:26:31.558Z,14.18
2022-10-23T13:46:33.627Z,19.05
2022-10-23T14:06:35.668Z,19.05
2022-10-23T14:26:37.859Z,17.40
2022-10-23T14:46:39.876Z,15.63
2022-10-23T15:06:42.281Z,16.65
2022-10-23T15:26:43.824Z,20.17
2022-10-23T15:46:46.412Z,19.90
2022-10-23T16:06:50.322Z,21.75
2022-10-23T16:26:52.473Z,22.30
2022-10-23T16:46:54.012Z,22.95
2022-10-23T17:06:56.364Z,20.30
2022-10-23T17:27:09.680Z,17.58
2022-10-23T17:47:23.311Z,15.52
2022-10-23T18:07:26.477Z,17.00
2022-10-23T18:27:28.748Z,15.18
2022-10-23T18:47:30.311Z,16.63
2022-10-23T19:07:32.712Z,16.15
2022-10-23T19:27:34.530Z,14.15
2022-10-23T19:47:37.859Z,13.02
2022-10-23T20:07:40.019Z,13.10
2022-10-23T20:27:42.650Z,16.05
2022-10-23T20:47:45.572Z,18.55
2022-10-23T21:07:48.449Z,21.35
2022-10-23T21:27:50.222Z,23.40
2022-10-23T21:47:52.644Z,23.92
2022-10-23T22:07:54.136Z,30.60
2022-10-23T22:27:56.830Z,27.13
2022-10-23T22:47:58.503Z,30.48
2022-10-23T23:08:01.037Z,29.85
2022-10-23T23:28:02.831Z,29.50
2022-10-23T23:48:05.344Z,30.90
